sensor_id;sensor_type;location;lat;lon;timestamp;pressure;altitude;pressure_sealevel;temperature;humidity
35307;BME280;21420;52.196;21.416;2023-05-14T00:01:18;100941.41;;;7.58;53.82
35307;BME280;21420;52.196;21.416;2023-05-14T00:03:44;100939.15;;;7.56;53.95
35307;BME280;21420;52.196;21.416;2023-05-14T00:06:11;100943.56;;;7.53;53.89
35307;BME280;21420;52.196;21.416;2023-05-14T00:08:38;100948.80;;;7.48;53.89
35307;BME280;21420;52.196;21.416;2023-05-14T00:11:04;100947.68;;;7.43;53.86
35307;BME280;21420;52.196;21.416;2023-05-14T00:13:31;100950.44;;;7.37;53.92
35307;BME280;21420;52.196;21.416;2023-05-14T00:15:57;100954.29;;;7.30;53.88
35307;BME280;21420;52.196;21.416;2023-05-14T00:18:24;100952.80;;;7.24;54.07
35307;BME280;21420;52.196;21.416;2023-05-14T00:20:51;100955.17;;;7.23;54.19
35307;BME280;21420;52.196;21.416;2023-05-14T00:23:21;100953.48;;;7.26;54.44
35307;BME280;21420;52.196;21.416;2023-05-14T00:25:48;100953.77;;;7.28;54.58
35307;BME280;21420;52.196;21.416;2023-05-14T00:28:15;100957.39;;;7.27;54.59
35307;BME280;21420;52.196;21.416;2023-05-14T00:30:43;100960.35;;;7.23;54.63
35307;BME280;21420;52.196;21.416;2023-05-14T00:33:10;100958.01;;;7.20;54.73
35307;BME280;21420;52.196;21.416;2023-05-14T00:35:36;100958.01;;;7.20;54.88
35307;BME280;21420;52.196;21.416;2023-05-14T00:38:03;100957.14;;;7.20;55.00
35307;BME280;21420;52.196;21.416;2023-05-14T00:40:30;100952.64;;;7.19;55.00
35307;BME280;21420;52.196;21.416;2023-05-14T00:42:56;100951.50;;;7.18;55.16
35307;BME280;21420;52.196;21.416;2023-05-14T00:45:23;100951.38;;;7.16;55.13
35307;BME280;21420;52.196;21.416;2023-05-14T00:47:51;100948.53;;;7.10;54.99
35307;BME280;21420;52.196;21.416;2023-05-14T00:50:19;100948.75;;;7.07;55.08
35307;BME280;21420;52.196;21.416;2023-05-14T00:52:46;100949.00;;;7.04;55.14
35307;BME280;21420;52.196;21.416;2023-05-14T00:55:15;100950.08;;;7.03;55.25
35307;BME280;21420;52.196;21.416;2023-05-14T00:57:42;100949.58;;;7.02;55.31
35307;BME280;21420;52.196;21.416;2023-05-14T01:00:09;100948.73;;;7.04;55.43
35307;BME280;21420;52.196;21.416;2023-05-14T01:02:36;100952.70;;;7.05;55.46
35307;BME280;21420;52.196;21.416;2023-05-14T01:05:04;100951.17;;;7.06;55.55
35307;BME280;21420;52.196;21.416;2023-05-14T01:07:51;100950.59;;;7.05;55.43
35307;BME280;21420;52.196;21.416;2023-05-14T01:10:37;100952.01;;;7.04;55.60
35307;BME280;21420;52.196;21.416;2023-05-14T01:13:19;100947.83;;;7.03;55.71
35307;BME280;21420;52.196;21.416;2023-05-14T01:15:48;100953.27;;;7.04;55.75
35307;BME280;21420;52.196;21.416;2023-05-14T01:18:17;100952.77;;;7.04;55.67
35307;BME280;21420;52.196;21.416;2023-05-14T01:20:44;100949.91;;;7.03;55.80
35307;BME280;21420;52.196;21.416;2023-05-14T01:23:11;100950.20;;;7.01;55.84
35307;BME280;21420;52.196;21.416;2023-05-14T01:25:37;100949.08;;;7.00;55.79
35307;BME280;21420;52.196;21.416;2023-05-14T01:28:12;100946.11;;;6.99;55.92
35307;BME280;21420;52.196;21.416;2023-05-14T01:30:55;100944.02;;;6.97;55.88
35307;BME280;21420;52.196;21.416;2023-05-14T01:33:25;100945.34;;;6.92;55.84
35307;BME280;21420;52.196;21.416;2023-05-14T01:35:53;100945.15;;;6.88;55.88
35307;BME280;21420;52.196;21.416;2023-05-14T01:38:21;100943.13;;;6.84;55.93
35307;BME280;21420;52.196;21.416;2023-05-14T01:40:49;100941.70;;;6.81;55.93
35307;BME280;21420;52.196;21.416;2023-05-14T01:43:16;100935.98;;;6.78;55.93
35307;BME280;21420;52.196;21.416;2023-05-14T01:45:44;100933.10;;;6.74;56.03
35307;BME280;21420;52.196;21.416;2023-05-14T01:48:11;100929.52;;;6.71;56.09
35307;BME280;21420;52.196;21.416;2023-05-14T01:50:37;100926.91;;;6.67;55.99
35307;BME280;21420;52.196;21.416;2023-05-14T01:53:04;100927.50;;;6.60;55.98
35307;BME280;21420;52.196;21.416;2023-05-14T01:55:31;100925.68;;;6.54;56.05
35307;BME280;21420;52.196;21.416;2023-05-14T01:57:57;100924.45;;;6.49;56.10
35307;BME280;21420;52.196;21.416;2023-05-14T02:00:24;100921.23;;;6.46;56.18
35307;BME280;21420;52.196;21.416;2023-05-14T02:02:51;100916.83;;;6.43;56.22
35307;BME280;21420;52.196;21.416;2023-05-14T02:05:18;100916.73;;;6.38;56.35
35307;BME280;21420;52.196;21.416;2023-05-14T02:07:45;100915.30;;;6.36;56.30
35307;BME280;21420;52.196;21.416;2023-05-14T02:10:12;100918.64;;;6.34;56.37
35307;BME280;21420;52.196;21.416;2023-05-14T02:12:38;100915.30;;;6.32;56.38
35307;BME280;21420;52.196;21.416;2023-05-14T02:15:05;100921.42;;;6.29;56.37
35307;BME280;21420;52.196;21.416;2023-05-14T02:17:37;100919.84;;;6.26;56.41
35307;BME280;21420;52.196;21.416;2023-05-14T02:20:05;100918.62;;;6.24;56.55
35307;BME280;21420;52.196;21.416;2023-05-14T02:22:31;100919.01;;;6.20;56.44
35307;BME280;21420;52.196;21.416;2023-05-14T02:24:58;100920.79;;;6.17;56.49
35307;BME280;21420;52.196;21.416;2023-05-14T02:27:24;100920.02;;;6.17;56.62
35307;BME280;21420;52.196;21.416;2023-05-14T02:29:51;100919.86;;;6.16;56.61
35307;BME280;21420;52.196;21.416;2023-05-14T02:32:18;100917.95;;;6.14;56.71
35307;BME280;21420;52.196;21.416;2023-05-14T02:34:44;100917.71;;;6.11;56.67
35307;BME280;21420;52.196;21.416;2023-05-14T02:37:11;100913.95;;;6.07;56.83
35307;BME280;21420;52.196;21.416;2023-05-14T02:39:37;100913.16;;;6.05;56.76
35307;BME280;21420;52.196;21.416;2023-05-14T02:42:05;100913.41;;;6.03;56.79
35307;BME280;21420;52.196;21.416;2023-05-14T02:44:32;100914.68;;;6.02;56.88
35307;BME280;21420;52.196;21.416;2023-05-14T02:46:59;100913.61;;;6.00;56.79
35307;BME280;21420;52.196;21.416;2023-05-14T02:49:25;100919.28;;;5.99;56.92
35307;BME280;21420;52.196;21.416;2023-05-14T02:51:52;100919.80;;;5.97;56.92
35307;BME280;21420;52.196;21.416;2023-05-14T02:54:19;100918.69;;;5.87;56.81
35307;BME280;21420;52.196;21.416;2023-05-14T02:56:46;100916.51;;;5.80;56.73
35307;BME280;21420;52.196;21.416;2023-05-14T02:59:12;100918.31;;;5.78;56.95
35307;BME280;21420;52.196;21.416;2023-05-14T03:01:40;100914.93;;;5.79;57.24
35307;BME280;21420;52.196;21.416;2023-05-14T03:04:07;100917.79;;;5.80;57.20
35307;BME280;21420;52.196;21.416;2023-05-14T03:06:34;100919.16;;;5.85;57.22
35307;BME280;21420;52.196;21.416;2023-05-14T03:09:00;100924.13;;;5.88;57.25
35307;BME280;21420;52.196;21.416;2023-05-14T03:11:27;100920.33;;;5.91;57.34
35307;BME280;21420;52.196;21.416;2023-05-14T03:13:53;100918.41;;;5.93;57.43
35307;BME280;21420;52.196;21.416;2023-05-14T03:16:20;100917.75;;;5.95;57.40
35307;BME280;21420;52.196;21.416;2023-05-14T03:18:46;100917.47;;;5.97;57.43
35307;BME280;21420;52.196;21.416;2023-05-14T03:21:13;100918.98;;;6.02;57.53
35307;BME280;21420;52.196;21.416;2023-05-14T03:23:40;100917.70;;;6.08;57.59
35307;BME280;21420;52.196;21.416;2023-05-14T03:26:09;100916.86;;;6.13;57.61
35307;BME280;21420;52.196;21.416;2023-05-14T03:28:39;100913.96;;;6.18;57.69
35307;BME280;21420;52.196;21.416;2023-05-14T03:31:06;100912.75;;;6.23;57.83
35307;BME280;21420;52.196;21.416;2023-05-14T03:33:32;100908.86;;;6.30;57.79
35307;BME280;21420;52.196;21.416;2023-05-14T03:35:59;100911.76;;;6.36;57.89
35307;BME280;21420;52.196;21.416;2023-05-14T03:38:25;100910.17;;;6.43;57.93
35307;BME280;21420;52.196;21.416;2023-05-14T03:40:52;100904.08;;;6.51;57.93
35307;BME280;21420;52.196;21.416;2023-05-14T03:43:19;100902.65;;;6.59;58.01
35307;BME280;21420;52.196;21.416;2023-05-14T03:45:46;100903.61;;;6.67;58.11
35307;BME280;21420;52.196;21.416;2023-05-14T03:48:18;100901.89;;;6.76;58.16
35307;BME280;21420;52.196;21.416;2023-05-14T03:50:45;100904.02;;;6.86;58.20
35307;BME280;21420;52.196;21.416;2023-05-14T03:53:12;100901.83;;;6.96;58.28
35307;BME280;21420;52.196;21.416;2023-05-14T03:55:38;100899.48;;;7.08;58.24
35307;BME280;21420;52.196;21.416;2023-05-14T03:58:09;100899.88;;;7.20;58.31
35307;BME280;21420;52.196;21.416;2023-05-14T04:00:42;100899.30;;;7.33;58.29
35307;BME280;21420;52.196;21.416;2023-05-14T04:03:09;100899.81;;;7.46;58.30
35307;BME280;21420;52.196;21.416;2023-05-14T04:05:36;100902.91;;;7.58;58.30
35307;BME280;21420;52.196;21.416;2023-05-14T04:08:03;100902.73;;;7.69;58.34
35307;BME280;21420;52.196;21.416;2023-05-14T04:10:30;100901.27;;;7.80;58.34
35307;BME280;21420;52.196;21.416;2023-05-14T04:12:58;100903.13;;;7.93;58.38
35307;BME280;21420;52.196;21.416;2023-05-14T04:15:29;100909.32;;;8.05;58.33
35307;BME280;21420;52.196;21.416;2023-05-14T04:17:56;100910.98;;;8.14;58.28
35307;BME280;21420;52.196;21.416;2023-05-14T04:20:23;100909.61;;;8.23;58.21
35307;BME280;21420;52.196;21.416;2023-05-14T04:22:49;100909.15;;;8.35;58.36
35307;BME280;21420;52.196;21.416;2023-05-14T04:25:16;100906.94;;;8.49;58.40
35307;BME280;21420;52.196;21.416;2023-05-14T04:27:44;100906.30;;;8.66;58.45
35307;BME280;21420;52.196;21.416;2023-05-14T04:30:10;100908.74;;;8.83;58.52
35307;BME280;21420;52.196;21.416;2023-05-14T04:32:37;100905.86;;;9.00;58.51
35307;BME280;21420;52.196;21.416;2023-05-14T04:35:04;100904.44;;;9.17;58.52
35307;BME280;21420;52.196;21.416;2023-05-14T04:37:32;100905.62;;;9.34;58.49
35307;BME280;21420;52.196;21.416;2023-05-14T04:39:59;100906.88;;;9.50;58.50
35307;BME280;21420;52.196;21.416;2023-05-14T04:42:26;100903.53;;;9.67;58.57
35307;BME280;21420;52.196;21.416;2023-05-14T04:44:52;100905.55;;;9.83;58.50
35307;BME280;21420;52.196;21.416;2023-05-14T04:47:19;100905.13;;;9.99;58.48
35307;BME280;21420;52.196;21.416;2023-05-14T04:49:46;100900.25;;;10.15;58.44
35307;BME280;21420;52.196;21.416;2023-05-14T04:52:13;100901.94;;;10.31;58.39
35307;BME280;21420;52.196;21.416;2023-05-14T04:54:39;100904.27;;;10.48;58.34
35307;BME280;21420;52.196;21.416;2023-05-14T04:57:06;100899.23;;;10.63;58.36
35307;BME280;21420;52.196;21.416;2023-05-14T04:59:32;100898.35;;;10.78;58.33
35307;BME280;21420;52.196;21.416;2023-05-14T05:01:59;100898.33;;;10.94;58.31
35307;BME280;21420;52.196;21.416;2023-05-14T05:04:26;100901.77;;;11.09;58.30
35307;BME280;21420;52.196;21.416;2023-05-14T05:06:53;100903.39;;;11.25;58.19
35307;BME280;21420;52.196;21.416;2023-05-14T05:09:20;100900.66;;;11.40;58.25
35307;BME280;21420;52.196;21.416;2023-05-14T05:11:46;100900.83;;;11.56;58.08
35307;BME280;21420;52.196;21.416;2023-05-14T05:14:13;100899.10;;;11.72;58.05
35307;BME280;21420;52.196;21.416;2023-05-14T05:16:39;100902.98;;;11.86;57.95
35307;BME280;21420;52.196;21.416;2023-05-14T05:19:06;100903.08;;;12.02;57.99
35307;BME280;21420;52.196;21.416;2023-05-14T05:21:33;100898.84;;;12.19;57.82
35307;BME280;21420;52.196;21.416;2023-05-14T05:24:00;100899.29;;;12.33;57.67
35307;BME280;21420;52.196;21.416;2023-05-14T05:26:26;100900.20;;;12.47;57.64
35307;BME280;21420;52.196;21.416;2023-05-14T05:28:53;100902.02;;;12.62;57.72
35307;BME280;21420;52.196;21.416;2023-05-14T05:31:20;100903.08;;;12.76;57.55
35307;BME280;21420;52.196;21.416;2023-05-14T05:33:46;100899.30;;;12.92;57.43
35307;BME280;21420;52.196;21.416;2023-05-14T05:36:13;100899.80;;;13.06;57.38
35307;BME280;21420;52.196;21.416;2023-05-14T05:38:40;100898.21;;;13.21;57.26
35307;BME280;21420;52.196;21.416;2023-05-14T05:41:06;100896.59;;;13.38;57.26
35307;BME280;21420;52.196;21.416;2023-05-14T05:43:33;100894.52;;;13.54;57.00
35307;BME280;21420;52.196;21.416;2023-05-14T05:46:00;100891.06;;;13.69;56.86
35307;BME280;21420;52.196;21.416;2023-05-14T05:48:27;100894.23;;;13.84;56.78
35307;BME280;21420;52.196;21.416;2023-05-14T05:50:53;100893.84;;;14.00;56.79
35307;BME280;21420;52.196;21.416;2023-05-14T05:53:20;100892.33;;;14.15;56.49
35307;BME280;21420;52.196;21.416;2023-05-14T05:55:47;100895.45;;;14.31;56.61
35307;BME280;21420;52.196;21.416;2023-05-14T05:58:13;100895.91;;;14.46;56.49
35307;BME280;21420;52.196;21.416;2023-05-14T06:00:42;100894.35;;;14.63;56.37
35307;BME280;21420;52.196;21.416;2023-05-14T06:03:10;100896.63;;;14.80;56.17
35307;BME280;21420;52.196;21.416;2023-05-14T06:05:36;100896.05;;;14.96;56.07
35307;BME280;21420;52.196;21.416;2023-05-14T06:08:03;100896.23;;;15.12;55.87
35307;BME280;21420;52.196;21.416;2023-05-14T06:10:30;100894.42;;;15.28;55.77
35307;BME280;21420;52.196;21.416;2023-05-14T06:12:57;100895.73;;;15.45;55.46
35307;BME280;21420;52.196;21.416;2023-05-14T06:15:23;100894.25;;;15.62;55.45
35307;BME280;21420;52.196;21.416;2023-05-14T06:17:50;100892.75;;;15.78;55.50
35307;BME280;21420;52.196;21.416;2023-05-14T06:20:17;100892.23;;;15.96;55.30
35307;BME280;21420;52.196;21.416;2023-05-14T06:22:44;100889.77;;;16.14;55.18
35307;BME280;21420;52.196;21.416;2023-05-14T06:25:11;100890.45;;;16.30;55.04
35307;BME280;21420;52.196;21.416;2023-05-14T06:27:37;100894.40;;;16.46;54.71
35307;BME280;21420;52.196;21.416;2023-05-14T06:30:04;100893.33;;;16.63;54.33
35307;BME280;21420;52.196;21.416;2023-05-14T06:32:32;100891.75;;;16.78;54.35
35307;BME280;21420;52.196;21.416;2023-05-14T06:34:58;100893.23;;;16.94;54.29
35307;BME280;21420;52.196;21.416;2023-05-14T06:37:25;100895.42;;;17.10;53.85
35307;BME280;21420;52.196;21.416;2023-05-14T06:39:52;100896.33;;;17.25;53.63
35307;BME280;21420;52.196;21.416;2023-05-14T06:42:21;100889.48;;;17.37;53.36
35307;BME280;21420;52.196;21.416;2023-05-14T06:44:48;100890.54;;;17.53;53.22
35307;BME280;21420;52.196;21.416;2023-05-14T06:47:14;100890.80;;;17.70;52.79
35307;BME280;21420;52.196;21.416;2023-05-14T06:49:41;100889.57;;;17.92;52.74
35307;BME280;21420;52.196;21.416;2023-05-14T06:52:08;100884.95;;;18.29;52.70
35307;BME280;21420;52.196;21.416;2023-05-14T06:54:34;100881.70;;;18.90;52.52
35307;BME280;21420;52.196;21.416;2023-05-14T06:57:01;100883.72;;;19.65;52.08
35307;BME280;21420;52.196;21.416;2023-05-14T06:59:27;100884.58;;;20.42;52.05
35307;BME280;21420;52.196;21.416;2023-05-14T07:01:54;100885.45;;;21.20;51.53
35307;BME280;21420;52.196;21.416;2023-05-14T07:04:21;100885.67;;;21.81;50.94
35307;BME280;21420;52.196;21.416;2023-05-14T07:06:48;100883.46;;;22.37;50.22
35307;BME280;21420;52.196;21.416;2023-05-14T07:09:15;100881.56;;;22.85;49.57
35307;BME280;21420;52.196;21.416;2023-05-14T07:11:41;100883.45;;;23.29;48.98
35307;BME280;21420;52.196;21.416;2023-05-14T07:14:08;100877.25;;;23.79;48.65
35307;BME280;21420;52.196;21.416;2023-05-14T07:16:35;100876.94;;;24.23;48.05
35307;BME280;21420;52.196;21.416;2023-05-14T07:19:02;100873.05;;;24.66;47.45
35307;BME280;21420;52.196;21.416;2023-05-14T07:21:29;100873.73;;;25.03;47.01
35307;BME280;21420;52.196;21.416;2023-05-14T07:23:55;100874.21;;;25.25;46.20
35307;BME280;21420;52.196;21.416;2023-05-14T07:26:22;100874.60;;;25.36;45.51
35307;BME280;21420;52.196;21.416;2023-05-14T07:28:49;100872.98;;;25.32;44.76
35307;BME280;21420;52.196;21.416;2023-05-14T07:31:16;100870.94;;;25.49;44.95
35307;BME280;21420;52.196;21.416;2023-05-14T07:33:46;100868.66;;;26.11;45.50
35307;BME280;21420;52.196;21.416;2023-05-14T07:36:12;100860.64;;;26.88;45.31
35307;BME280;21420;52.196;21.416;2023-05-14T07:38:39;100861.29;;;27.39;44.45
35307;BME280;21420;52.196;21.416;2023-05-14T07:41:06;100859.67;;;27.61;43.70
35307;BME280;21420;52.196;21.416;2023-05-14T07:43:33;100855.63;;;27.77;43.48
35307;BME280;21420;52.196;21.416;2023-05-14T07:46:00;100852.95;;;28.36;43.65
35307;BME280;21420;52.196;21.416;2023-05-14T07:48:26;100855.24;;;29.01;43.54
35307;BME280;21420;52.196;21.416;2023-05-14T07:50:53;100854.47;;;29.14;41.64
35307;BME280;21420;52.196;21.416;2023-05-14T07:53:20;100849.15;;;28.79;41.02
35307;BME280;21420;52.196;21.416;2023-05-14T07:55:47;100850.12;;;29.19;41.52
35307;BME280;21420;52.196;21.416;2023-05-14T07:58:14;100847.17;;;29.05;40.02
35307;BME280;21420;52.196;21.416;2023-05-14T08:00:42;100844.61;;;28.93;40.28
35307;BME280;21420;52.196;21.416;2023-05-14T08:03:08;100844.13;;;29.61;41.16
35307;BME280;21420;52.196;21.416;2023-05-14T08:05:38;100840.58;;;30.36;41.04
35307;BME280;21420;52.196;21.416;2023-05-14T08:08:04;100838.17;;;31.04;40.70
35307;BME280;21420;52.196;21.416;2023-05-14T08:10:31;100836.88;;;31.52;40.30
35307;BME280;21420;52.196;21.416;2023-05-14T08:12:58;100833.42;;;31.95;39.88
35307;BME280;21420;52.196;21.416;2023-05-14T08:15:25;100833.96;;;32.13;38.65
35307;BME280;21420;52.196;21.416;2023-05-14T08:17:53;100835.09;;;31.84;37.95
35307;BME280;21420;52.196;21.416;2023-05-14T08:20:20;100834.85;;;31.30;37.08
35307;BME280;21420;52.196;21.416;2023-05-14T08:22:47;100834.29;;;31.09;37.00
35307;BME280;21420;52.196;21.416;2023-05-14T08:25:14;100826.84;;;30.95;36.92
35307;BME280;21420;52.196;21.416;2023-05-14T08:27:41;100825.73;;;31.04;36.58
35307;BME280;21420;52.196;21.416;2023-05-14T08:30:07;100828.25;;;30.57;35.55
35307;BME280;21420;52.196;21.416;2023-05-14T08:32:34;100822.95;;;30.25;35.83
35307;BME280;21420;52.196;21.416;2023-05-14T08:35:01;100822.97;;;30.42;35.92
35307;BME280;21420;52.196;21.416;2023-05-14T08:37:27;100817.79;;;30.38;35.74
35307;BME280;21420;52.196;21.416;2023-05-14T08:39:54;100820.53;;;30.46;35.33
35307;BME280;21420;52.196;21.416;2023-05-14T08:42:23;100818.09;;;30.34;34.97
35307;BME280;21420;52.196;21.416;2023-05-14T08:44:59;100816.46;;;30.02;34.49
35307;BME280;21420;52.196;21.416;2023-05-14T08:47:27;100812.77;;;30.12;35.15
35307;BME280;21420;52.196;21.416;2023-05-14T08:50:05;100809.66;;;30.52;35.08
35307;BME280;21420;52.196;21.416;2023-05-14T08:52:33;100814.63;;;30.95;35.04
35307;BME280;21420;52.196;21.416;2023-05-14T08:55:03;100814.83;;;30.80;33.82
35307;BME280;21420;52.196;21.416;2023-05-14T08:57:31;100809.88;;;30.18;33.61
35307;BME280;21420;52.196;21.416;2023-05-14T08:59:59;100813.00;;;30.17;33.77
35307;BME280;21420;52.196;21.416;2023-05-14T09:02:30;100814.46;;;29.88;33.09
35307;BME280;21420;52.196;21.416;2023-05-14T09:04:58;100812.36;;;29.84;33.42
35307;BME280;21420;52.196;21.416;2023-05-14T09:07:26;100808.70;;;30.00;33.58
35307;BME280;21420;52.196;21.416;2023-05-14T09:09:53;100805.59;;;29.93;33.14
35307;BME280;21420;52.196;21.416;2023-05-14T09:12:20;100802.38;;;29.70;32.93
35307;BME280;21420;52.196;21.416;2023-05-14T09:14:48;100798.92;;;30.01;33.47
35307;BME280;21420;52.196;21.416;2023-05-14T09:17:16;100800.89;;;30.13;32.65
35307;BME280;21420;52.196;21.416;2023-05-14T09:19:43;100800.55;;;29.85;32.38
35307;BME280;21420;52.196;21.416;2023-05-14T09:22:14;100792.75;;;29.71;32.56
35307;BME280;21420;52.196;21.416;2023-05-14T09:24:41;100787.97;;;30.11;33.05
35307;BME280;21420;52.196;21.416;2023-05-14T09:27:10;100787.86;;;30.82;33.18
35307;BME280;21420;52.196;21.416;2023-05-14T09:29:40;100783.52;;;31.34;33.16
35307;BME280;21420;52.196;21.416;2023-05-14T09:32:07;100786.52;;;31.63;32.66
35307;BME280;21420;52.196;21.416;2023-05-14T09:34:35;100790.27;;;31.57;31.94
35307;BME280;21420;52.196;21.416;2023-05-14T09:37:06;100789.12;;;31.12;31.44
35307;BME280;21420;52.196;21.416;2023-05-14T09:39:34;100785.20;;;31.19;31.93
35307;BME280;21420;52.196;21.416;2023-05-14T09:42:02;100783.62;;;30.87;31.04
35307;BME280;21420;52.196;21.416;2023-05-14T09:44:29;100778.39;;;30.39;31.13
35307;BME280;21420;52.196;21.416;2023-05-14T09:46:56;100781.09;;;30.76;31.41
35307;BME280;21420;52.196;21.416;2023-05-14T09:49:22;100784.89;;;30.22;30.21
35307;BME280;21420;52.196;21.416;2023-05-14T09:51:50;100780.98;;;29.60;30.75
35307;BME280;21420;52.196;21.416;2023-05-14T09:54:16;100780.95;;;29.49;30.53
35307;BME280;21420;52.196;21.416;2023-05-14T09:56:43;100767.16;;;29.15;30.38
35307;BME280;21420;52.196;21.416;2023-05-14T09:59:10;100775.28;;;29.29;30.64
35307;BME280;21420;52.196;21.416;2023-05-14T10:01:37;100774.08;;;29.23;30.63
35307;BME280;21420;52.196;21.416;2023-05-14T10:04:06;100773.45;;;29.34;30.94
35307;BME280;21420;52.196;21.416;2023-05-14T10:06:37;100762.76;;;29.42;30.92
35307;BME280;21420;52.196;21.416;2023-05-14T10:09:09;100758.20;;;30.07;31.30
35307;BME280;21420;52.196;21.416;2023-05-14T10:11:41;100755.74;;;30.62;31.09
35307;BME280;21420;52.196;21.416;2023-05-14T10:14:17;100758.35;;;30.69;30.25
35307;BME280;21420;52.196;21.416;2023-05-14T10:16:49;100754.64;;;30.01;29.53
35307;BME280;21420;52.196;21.416;2023-05-14T10:19:17;100756.82;;;29.66;29.77
35307;BME280;21420;52.196;21.416;2023-05-14T10:21:56;100760.96;;;29.32;29.27
35307;BME280;21420;52.196;21.416;2023-05-14T10:24:26;100758.61;;;28.86;29.13
35307;BME280;21420;52.196;21.416;2023-05-14T10:26:52;100750.66;;;28.47;28.93
35307;BME280;21420;52.196;21.416;2023-05-14T10:29:30;100744.23;;;28.42;29.53
35307;BME280;21420;52.196;21.416;2023-05-14T10:31:56;100744.05;;;28.54;29.61
35307;BME280;21420;52.196;21.416;2023-05-14T10:37:00;100741.34;;;29.11;29.80
35307;BME280;21420;52.196;21.416;2023-05-14T10:39:47;100747.55;;;29.52;29.83
35307;BME280;21420;52.196;21.416;2023-05-14T10:42:20;100746.95;;;29.42;29.50
35307;BME280;21420;52.196;21.416;2023-05-14T10:44:58;100749.58;;;29.08;28.99
35307;BME280;21420;52.196;21.416;2023-05-14T10:47:28;100735.94;;;28.64;28.57
35307;BME280;21420;52.196;21.416;2023-05-14T10:50:02;100722.42;;;28.70;29.22
35307;BME280;21420;52.196;21.416;2023-05-14T10:52:29;100727.76;;;28.93;29.17
35307;BME280;21420;52.196;21.416;2023-05-14T10:55:01;100722.94;;;28.93;29.24
35307;BME280;21420;52.196;21.416;2023-05-14T10:57:30;100715.94;;;28.91;29.11
35307;BME280;21420;52.196;21.416;2023-05-14T11:00:01;100716.95;;;29.16;29.41
35307;BME280;21420;52.196;21.416;2023-05-14T11:02:39;100725.41;;;29.50;29.37
35307;BME280;21420;52.196;21.416;2023-05-14T11:05:08;100721.26;;;29.56;29.01
35307;BME280;21420;52.196;21.416;2023-05-14T11:07:37;100721.58;;;29.36;28.79
35307;BME280;21420;52.196;21.416;2023-05-14T11:10:08;100714.38;;;29.23;28.59
35307;BME280;21420;52.196;21.416;2023-05-14T11:12:39;100703.05;;;29.42;29.18
35307;BME280;21420;52.196;21.416;2023-05-14T11:15:11;100700.48;;;29.59;28.68
35307;BME280;21420;52.196;21.416;2023-05-14T11:17:40;100699.21;;;29.70;28.89
35307;BME280;21420;52.196;21.416;2023-05-14T11:20:08;100691.59;;;30.05;29.10
35307;BME280;21420;52.196;21.416;2023-05-14T11:22:36;100689.75;;;30.17;28.78
35307;BME280;21420;52.196;21.416;2023-05-14T11:25:03;100679.25;;;29.43;28.10
35307;BME280;21420;52.196;21.416;2023-05-14T11:27:32;100674.14;;;29.15;28.58
35307;BME280;21420;52.196;21.416;2023-05-14T11:29:59;100671.36;;;29.14;28.41
35307;BME280;21420;52.196;21.416;2023-05-14T11:32:26;100672.96;;;28.69;28.16
35307;BME280;21420;52.196;21.416;2023-05-14T11:34:53;100670.84;;;28.66;28.34
35307;BME280;21420;52.196;21.416;2023-05-14T11:37:19;100668.17;;;28.46;28.37
35307;BME280;21420;52.196;21.416;2023-05-14T11:39:51;100659.48;;;28.46;28.65
35307;BME280;21420;52.196;21.416;2023-05-14T11:42:19;100649.98;;;28.85;28.83
35307;BME280;21420;52.196;21.416;2023-05-14T11:44:47;100646.70;;;29.03;28.68
35307;BME280;21420;52.196;21.416;2023-05-14T11:47:16;100646.22;;;29.03;28.24
35307;BME280;21420;52.196;21.416;2023-05-14T11:49:44;100642.27;;;28.66;28.16
35307;BME280;21420;52.196;21.416;2023-05-14T11:52:13;100637.34;;;28.94;28.55
35307;BME280;21420;52.196;21.416;2023-05-14T11:54:41;100639.80;;;29.16;28.39
35307;BME280;21420;52.196;21.416;2023-05-14T11:57:10;100631.13;;;28.94;27.99
35307;BME280;21420;52.196;21.416;2023-05-14T11:59:38;100631.90;;;28.51;27.79
35307;BME280;21420;52.196;21.416;2023-05-14T12:02:09;100617.60;;;28.08;27.76
35307;BME280;21420;52.196;21.416;2023-05-14T12:04:36;100611.94;;;27.94;28.13
35307;BME280;21420;52.196;21.416;2023-05-14T12:07:11;100602.65;;;28.42;28.88
35307;BME280;21420;52.196;21.416;2023-05-14T12:09:40;100593.60;;;29.00;28.73
35307;BME280;21420;52.196;21.416;2023-05-14T12:12:11;100589.07;;;29.22;28.72
35307;BME280;21420;52.196;21.416;2023-05-14T12:14:39;100590.95;;;28.97;27.93
35307;BME280;21420;52.196;21.416;2023-05-14T12:17:12;100588.52;;;28.68;28.24
35307;BME280;21420;52.196;21.416;2023-05-14T12:19:40;100587.02;;;28.79;28.60
35307;BME280;21420;52.196;21.416;2023-05-14T12:22:09;100578.14;;;28.73;28.39
35307;BME280;21420;52.196;21.416;2023-05-14T12:24:36;100567.42;;;28.71;28.26
35307;BME280;21420;52.196;21.416;2023-05-14T12:27:06;100572.40;;;28.64;28.28
35307;BME280;21420;52.196;21.416;2023-05-14T12:29:37;100569.82;;;28.59;28.53
35307;BME280;21420;52.196;21.416;2023-05-14T12:32:07;100564.00;;;28.63;28.36
35307;BME280;21420;52.196;21.416;2023-05-14T12:34:35;100561.01;;;28.56;28.48
35307;BME280;21420;52.196;21.416;2023-05-14T12:37:04;100551.45;;;28.74;28.59
35307;BME280;21420;52.196;21.416;2023-05-14T12:39:33;100545.91;;;28.82;28.31
35307;BME280;21420;52.196;21.416;2023-05-14T12:42:01;100546.55;;;28.50;28.08
35307;BME280;21420;52.196;21.416;2023-05-14T12:44:27;100550.50;;;28.10;27.97
35307;BME280;21420;52.196;21.416;2023-05-14T12:46:54;100548.24;;;27.98;28.09
35307;BME280;21420;52.196;21.416;2023-05-14T12:49:21;100544.25;;;28.21;28.30